Time;durP1;ratioP1;P1;durP2;ratioP2;P2;SDS_P1;SDS_P2;PMS_P1;PMS_P2;Temp;Humidity;BMP_temperature;BMP_pressure;BME280_temperature;BME280_humidity;BME280_pressure;Samples;Min_cycle;Max_cycle;Signal;HPM_P1;HPM_P2
2024/01/19 00:01:44;;;;;;;49.20;26.13;;;-0.90;99.90;;;;;;5012506;28;20518;-72
2024/01/19 00:04:10;;;;;;;52.37;24.87;;;-1.00;99.90;;;;;;5012430;28;20185;-72
2024/01/19 00:06:39;;;;;;;40.27;22.37;;;-1.00;99.90;;;;;;5012166;28;20176;-72
2024/01/19 00:09:05;;;;;;;49.53;25.37;;;-1.00;99.90;;;;;;5012109;28;20287;-72
2024/01/19 00:11:31;;;;;;;44.87;25.20;;;-1.00;99.90;;;;;;5013185;28;20207;-72
2024/01/19 00:13:57;;;;;;;50.97;27.00;;;-0.90;99.90;;;;;;5012403;28;20654;-72
2024/01/19 00:16:23;;;;;;;57.50;29.03;;;-1.00;99.90;;;;;;5012264;28;20250;-72
2024/01/19 00:18:48;;;;;;;54.80;28.43;;;-1.10;99.90;;;;;;5012073;28;20682;-72
2024/01/19 00:21:15;;;;;;;39.70;22.70;;;-1.10;99.90;;;;;;5012354;28;20180;-72
2024/01/19 00:23:41;;;;;;;45.30;22.70;;;-1.00;99.90;;;;;;5014838;28;20290;-72
2024/01/19 00:26:07;;;;;;;57.53;27.27;;;-1.00;99.90;;;;;;5031895;28;20175;-72
2024/01/19 00:28:32;;;;;;;52.90;28.50;;;-1.00;99.90;;;;;;5031445;28;20813;-72
2024/01/19 00:30:58;;;;;;;58.63;26.87;;;-0.90;99.90;;;;;;5031718;28;20289;-72
2024/01/19 00:33:24;;;;;;;54.63;29.10;;;-1.00;99.90;;;;;;5031545;28;20283;-72
2024/01/19 00:35:49;;;;;;;63.57;28.43;;;-0.90;99.90;;;;;;5031431;28;20315;-72
2024/01/19 00:38:15;;;;;;;67.63;28.73;;;-0.90;99.90;;;;;;5029362;28;20196;-74
2024/01/19 00:40:40;;;;;;;76.57;30.67;;;-0.90;99.90;;;;;;5011897;28;20172;-73
2024/01/19 00:43:06;;;;;;;59.00;28.83;;;-0.80;99.90;;;;;;5012514;28;20199;-72
2024/01/19 00:45:32;;;;;;;76.60;30.00;;;-0.70;99.90;;;;;;5011763;28;20218;-72
2024/01/19 00:47:57;;;;;;;60.23;29.27;;;-0.60;99.90;;;;;;5011971;28;20192;-72
2024/01/19 00:50:23;;;;;;;61.50;30.97;;;-0.50;99.90;;;;;;5010351;28;20282;-72
2024/01/19 00:52:48;;;;;;;63.33;28.63;;;-0.60;99.90;;;;;;5024868;28;20203;-72
2024/01/19 00:55:14;;;;;;;59.07;29.03;;;-0.70;99.90;;;;;;5031559;28;20175;-72
2024/01/19 00:57:39;;;;;;;70.77;28.90;;;-0.60;99.90;;;;;;5032450;28;20191;-72
2024/01/19 01:00:06;;;;;;;65.13;30.20;;;-0.60;99.90;;;;;;5031362;28;20195;-73
2024/01/19 01:02:31;;;;;;;84.37;31.93;;;-0.50;99.90;;;;;;5031411;28;20211;-72
2024/01/19 01:04:57;;;;;;;84.07;29.27;;;-0.40;99.90;;;;;;5031287;28;20221;-73
2024/01/19 01:07:23;;;;;;;68.20;29.83;;;-0.50;99.90;;;;;;5018935;28;20242;-73
2024/01/19 01:09:49;;;;;;;60.40;29.53;;;-0.50;99.90;;;;;;5022849;28;20226;-72
2024/01/19 01:12:15;;;;;;;73.07;32.33;;;-0.40;99.90;;;;;;5030914;28;20230;-72
2024/01/19 01:14:41;;;;;;;63.93;28.50;;;-0.50;99.90;;;;;;5031077;28;20699;-73
2024/01/19 01:17:06;;;;;;;85.03;27.57;;;-0.50;99.90;;;;;;5013828;28;20664;-72
2024/01/19 01:19:32;;;;;;;79.07;26.70;;;-0.50;99.90;;;;;;5014685;28;20278;-72
2024/01/19 01:21:58;;;;;;;76.83;30.87;;;-0.50;99.90;;;;;;5021838;28;20183;-72
2024/01/19 01:24:24;;;;;;;62.13;29.80;;;-0.40;99.90;;;;;;5011042;28;20671;-72
2024/01/19 01:26:50;;;;;;;74.57;28.90;;;-0.50;99.90;;;;;;5011376;28;20194;-72
2024/01/19 01:29:16;;;;;;;80.90;28.23;;;-0.50;99.90;;;;;;5010524;28;20196;-73
2024/01/19 01:31:41;;;;;;;62.10;27.37;;;-0.50;99.90;;;;;;5021033;28;20203;-73
2024/01/19 01:34:08;;;;;;;86.40;28.93;;;-0.50;99.90;;;;;;5031353;28;20291;-73
2024/01/19 01:36:33;;;;;;;67.63;28.63;;;-0.60;99.90;;;;;;5031135;28;20176;-73
2024/01/19 01:38:59;;;;;;;70.40;27.00;;;-0.50;99.90;;;;;;5015643;28;20200;-73
2024/01/19 01:41:24;;;;;;;58.40;25.43;;;-0.50;99.90;;;;;;5011744;28;20195;-73
2024/01/19 01:43:50;;;;;;;51.73;23.20;;;-0.50;99.90;;;;;;5011984;28;20203;-72
2024/01/19 01:46:16;;;;;;;73.70;27.10;;;-0.80;99.90;;;;;;5011309;28;20172;-72
2024/01/19 01:48:41;;;;;;;49.10;23.47;;;-0.90;99.90;;;;;;5025782;28;20203;-72
2024/01/19 01:51:08;;;;;;;65.90;29.33;;;-1.10;99.90;;;;;;5034390;28;20211;-72
2024/01/19 01:53:34;;;;;;;48.53;26.33;;;-1.00;99.90;;;;;;5034579;28;20167;-72
2024/01/19 01:56:01;;;;;;;53.23;27.37;;;-1.10;99.90;;;;;;5034682;28;20178;-73
2024/01/19 01:58:26;;;;;;;65.43;28.73;;;-1.10;99.90;;;;;;5034186;28;20274;-73
2024/01/19 02:00:53;;;;;;;39.63;21.47;;;-1.10;99.90;;;;;;5034598;28;20574;-72
2024/01/19 02:03:18;;;;;;;57.93;28.70;;;-1.20;99.90;;;;;;5020584;28;20191;-72
2024/01/19 02:05:44;;;;;;;52.53;28.40;;;-1.20;99.90;;;;;;5014385;28;20600;-72
2024/01/19 02:08:10;;;;;;;61.50;29.30;;;-1.10;99.90;;;;;;5014529;28;20191;-72
2024/01/19 02:10:36;;;;;;;62.27;30.27;;;-1.10;99.90;;;;;;5014249;28;20176;-73
2024/01/19 02:13:01;;;;;;;53.97;28.83;;;-1.10;99.90;;;;;;5014607;28;20182;-73
2024/01/19 02:15:27;;;;;;;57.17;28.97;;;-1.20;99.90;;;;;;5019667;28;20187;-73
2024/01/19 02:17:54;;;;;;;50.33;30.30;;;-1.00;99.90;;;;;;5034098;28;20211;-72
2024/01/19 02:20:20;;;;;;;59.27;30.60;;;-1.00;99.90;;;;;;5034278;28;20537;-73
2024/01/19 02:22:47;;;;;;;63.60;31.90;;;-1.00;99.90;;;;;;5034057;28;20183;-73
2024/01/19 02:25:13;;;;;;;66.77;32.57;;;-0.90;99.90;;;;;;5033761;28;20193;-73
2024/01/19 02:27:40;;;;;;;54.40;30.33;;;-0.90;99.90;;;;;;5034022;28;20270;-73
2024/01/19 02:30:09;;;;;;;60.67;30.20;;;-0.90;99.90;;;;;;5032055;28;20590;-72
2024/01/19 02:32:35;;;;;;;55.37;30.37;;;-0.80;99.90;;;;;;5033656;28;20199;-72
2024/01/19 02:35:01;;;;;;;56.90;29.57;;;-0.70;99.90;;;;;;5033289;28;20163;-72
2024/01/19 02:37:27;;;;;;;57.23;28.10;;;-0.80;99.90;;;;;;5033778;28;20175;-72
2024/01/19 02:39:53;;;;;;;63.93;30.60;;;-0.80;99.90;;;;;;5033591;28;20274;-72
2024/01/19 02:42:18;;;;;;;58.07;29.30;;;-0.70;99.90;;;;;;5033957;28;20180;-72
2024/01/19 02:44:44;;;;;;;56.90;31.03;;;-0.70;99.90;;;;;;5016168;28;20674;-72
2024/01/19 02:47:09;;;;;;;63.13;31.80;;;-0.80;99.90;;;;;;5013677;28;20212;-72
2024/01/19 02:49:35;;;;;;;62.13;32.50;;;-0.80;99.90;;;;;;5013464;28;20219;-72
2024/01/19 02:52:01;;;;;;;59.03;30.43;;;-0.60;99.90;;;;;;5013750;28;20200;-72
2024/01/19 02:54:26;;;;;;;66.03;31.70;;;-0.50;99.90;;;;;;5013710;28;20170;-72
2024/01/19 02:56:52;;;;;;;56.10;29.90;;;-0.50;99.90;;;;;;5013679;28;20560;-73
2024/01/19 02:59:18;;;;;;;58.30;31.77;;;-0.40;99.90;;;;;;5013234;28;20282;-72
2024/01/19 03:01:43;;;;;;;55.23;30.67;;;-0.40;99.90;;;;;;5013374;28;20176;-72
2024/01/19 03:04:09;;;;;;;46.70;28.17;;;-0.40;99.90;;;;;;5013360;28;20219;-72
2024/01/19 03:06:34;;;;;;;54.27;29.53;;;-0.30;99.90;;;;;;5032321;28;20282;-72
2024/01/19 03:09:00;;;;;;;63.43;31.63;;;-0.40;99.90;;;;;;5033006;28;20191;-72
2024/01/19 03:11:26;;;;;;;60.93;31.40;;;-0.20;99.90;;;;;;5025036;28;20582;-72
2024/01/19 03:13:53;;;;;;;57.13;29.57;;;-0.20;99.90;;;;;;5013297;28;20172;-72
2024/01/19 03:16:19;;;;;;;58.90;29.30;;;-0.20;99.90;;;;;;5013115;28;20174;-72
2024/01/19 03:18:45;;;;;;;52.43;29.33;;;-0.20;99.90;;;;;;5012893;28;20683;-72
2024/01/19 03:21:12;;;;;;;51.40;29.27;;;-0.30;99.90;;;;;;5020524;28;20180;-72
2024/01/19 03:23:37;;;;;;;57.50;29.33;;;-0.30;99.90;;;;;;5032726;28;20172;-73
2024/01/19 03:26:03;;;;;;;49.47;28.43;;;-0.30;99.90;;;;;;5032986;28;20237;-72
2024/01/19 03:28:29;;;;;;;55.27;28.73;;;-0.20;99.90;;;;;;5032869;28;20202;-72
2024/01/19 03:30:54;;;;;;;56.97;29.63;;;-0.30;99.90;;;;;;5031021;28;20248;-72
2024/01/19 03:33:20;;;;;;;51.37;27.07;;;-0.20;99.90;;;;;;5032457;28;20178;-72
2024/01/19 03:35:45;;;;;;;45.90;27.70;;;-0.20;99.90;;;;;;5032604;28;20168;-71
2024/01/19 03:38:11;;;;;;;48.40;26.20;;;0.00;99.90;;;;;;5032543;28;20191;-71
2024/01/19 03:40:37;;;;;;;55.47;28.63;;;-0.20;99.90;;;;;;5032559;28;20176;-71
2024/01/19 03:43:03;;;;;;;50.50;27.40;;;-0.20;99.90;;;;;;5033175;28;20168;-71
2024/01/19 03:45:29;;;;;;;48.20;27.03;;;-0.10;99.90;;;;;;5026724;28;20176;-71
2024/01/19 03:47:55;;;;;;;46.70;26.60;;;-0.10;99.90;;;;;;5012601;28;20250;-71
2024/01/19 03:50:22;;;;;;;51.73;27.77;;;-0.20;99.90;;;;;;5012326;28;20659;-71
2024/01/19 03:52:48;;;;;;;50.17;28.70;;;-0.20;99.90;;;;;;5012639;28;20200;-71
2024/01/19 03:55:15;;;;;;;53.03;26.43;;;-0.30;99.90;;;;;;5012653;28;20189;-72
2024/01/19 03:57:40;;;;;;;56.60;29.87;;;-0.30;99.90;;;;;;5012400;28;20563;-71
2024/01/19 04:00:07;;;;;;;60.67;28.50;;;-0.40;99.90;;;;;;5030162;28;20186;-71
2024/01/19 04:02:32;;;;;;;48.63;26.37;;;-0.40;99.90;;;;;;5032162;28;20329;-71
2024/01/19 04:04:58;;;;;;;53.57;28.27;;;-0.30;99.90;;;;;;5032148;28;20254;-72
2024/01/19 04:07:23;;;;;;;56.97;28.20;;;-0.20;99.90;;;;;;5032003;28;20643;-71
2024/01/19 04:09:49;;;;;;;46.73;26.97;;;-0.30;99.90;;;;;;5032006;28;20491;-71
2024/01/19 04:12:16;;;;;;;53.40;27.50;;;-0.20;99.90;;;;;;5031209;28;20199;-71
2024/01/19 04:14:44;;;;;;;50.53;28.23;;;-0.20;99.90;;;;;;5015131;28;20238;-71
2024/01/19 04:17:12;;;;;;;52.00;28.03;;;0.00;99.90;;;;;;5012307;28;20178;-71
2024/01/19 04:19:39;;;;;;;55.83;28.70;;;-0.10;99.90;;;;;;5012847;28;20200;-72
2024/01/19 04:22:05;;;;;;;49.57;27.07;;;0.00;99.90;;;;;;5030533;28;20183;-72
2024/01/19 04:24:30;;;;;;;50.97;28.20;;;-0.10;99.90;;;;;;5031902;28;20203;-72
2024/01/19 04:26:56;;;;;;;54.83;25.67;;;0.00;99.90;;;;;;5022301;28;20643;-71
2024/01/19 04:29:22;;;;;;;49.20;26.43;;;0.00;99.90;;;;;;5011666;28;20663;-71
2024/01/19 04:31:48;;;;;;;63.33;27.03;;;0.10;99.90;;;;;;5011656;28;20210;-72
2024/01/19 04:34:14;;;;;;;53.07;28.57;;;0.00;99.90;;;;;;5011986;28;20255;-72
2024/01/19 04:36:40;;;;;;;47.60;26.27;;;0.20;99.90;;;;;;5011733;28;20260;-71
2024/01/19 04:39:05;;;;;;;52.27;26.50;;;0.10;99.90;;;;;;5027073;28;20659;-71
2024/01/19 04:41:32;;;;;;;61.77;28.57;;;0.30;99.90;;;;;;5031341;28;20214;-71
2024/01/19 04:43:57;;;;;;;49.43;27.57;;;0.20;99.90;;;;;;5031496;28;20259;-71
2024/01/19 04:46:23;;;;;;;50.17;27.00;;;0.30;99.90;;;;;;5016525;28;20260;-72
2024/01/19 04:48:49;;;;;;;50.57;27.90;;;0.40;99.90;;;;;;5011352;28;20579;-71
2024/01/19 04:51:15;;;;;;;58.43;27.53;;;0.10;99.90;;;;;;5011570;28;20203;-71
2024/01/19 04:53:40;;;;;;;56.67;29.33;;;0.10;99.90;;;;;;5011089;28;20164;-71
2024/01/19 04:56:07;;;;;;;49.47;28.47;;;0.00;99.90;;;;;;5031236;28;20168;-72
2024/01/19 04:58:36;;;;;;;52.97;28.77;;;0.10;99.90;;;;;;5030194;28;20656;-72
2024/01/19 05:01:03;;;;;;;54.80;28.30;;;0.10;99.90;;;;;;5031888;28;20198;-71
2024/01/19 05:03:32;;;;;;;57.47;27.97;;;-0.10;99.90;;;;;;5032257;28;20306;-72
2024/01/19 05:05:57;;;;;;;55.33;28.33;;;-0.10;99.90;;;;;;5032542;28;20178;-72
2024/01/19 05:08:23;;;;;;;61.70;29.20;;;-0.20;99.90;;;;;;5031688;28;20194;-71
2024/01/19 05:10:49;;;;;;;49.57;28.33;;;-0.10;99.90;;;;;;5012263;28;20175;-73
2024/01/19 05:13:14;;;;;;;49.23;27.83;;;-0.10;99.90;;;;;;5012138;28;20168;-72
2024/01/19 05:15:41;;;;;;;50.87;27.20;;;-0.10;99.90;;;;;;5012255;28;20172;-72
2024/01/19 05:18:07;;;;;;;50.77;26.93;;;-0.30;99.90;;;;;;5011569;28;20180;-72
2024/01/19 05:20:33;;;;;;;48.83;25.90;;;-0.20;99.90;;;;;;5011243;28;20181;-72
2024/01/19 05:22:58;;;;;;;45.33;26.50;;;-0.20;99.90;;;;;;5023201;28;20176;-72
2024/01/19 05:25:24;;;;;;;56.73;26.80;;;-0.20;99.90;;;;;;5034970;28;20226;-72
2024/01/19 05:27:53;;;;;;;45.17;25.53;;;-0.20;99.90;;;;;;5029763;28;20203;-72
2024/01/19 05:30:25;;;;;;;46.10;25.03;;;-0.10;99.90;;;;;;5015081;28;20168;-71
2024/01/19 05:32:51;;;;;;;55.23;27.07;;;0.00;99.90;;;;;;5015167;28;20319;-71
2024/01/19 05:35:17;;;;;;;51.17;26.50;;;-0.10;99.90;;;;;;5014999;28;20173;-72
2024/01/19 05:37:42;;;;;;;52.80;26.33;;;-0.20;99.90;;;;;;5014997;28;20199;-73
2024/01/19 05:40:08;;;;;;;48.27;25.83;;;-0.10;99.90;;;;;;5014934;28;20169;-72
2024/01/19 05:42:34;;;;;;;47.93;25.10;;;0.00;99.90;;;;;;5019269;28;20187;-72
2024/01/19 05:45:00;;;;;;;41.03;22.30;;;-0.20;99.90;;;;;;5035153;28;20655;-72
2024/01/19 05:47:25;;;;;;;42.53;20.63;;;0.00;99.90;;;;;;5034600;28;20171;-72
2024/01/19 05:49:51;;;;;;;46.37;23.13;;;0.00;99.90;;;;;;5030208;28;20184;-72
2024/01/19 05:52:18;;;;;;;42.23;22.43;;;0.20;99.90;;;;;;5014674;28;20283;-71
2024/01/19 05:54:44;;;;;;;44.37;23.20;;;0.00;99.90;;;;;;5014676;28;20176;-72
2024/01/19 05:57:09;;;;;;;43.10;22.63;;;0.00;99.90;;;;;;5014634;28;20179;-72
2024/01/19 05:59:38;;;;;;;44.50;22.53;;;0.00;99.90;;;;;;5014283;28;20188;-72
2024/01/19 06:02:04;;;;;;;51.53;24.63;;;0.10;99.90;;;;;;5014779;28;20176;-72
2024/01/19 06:04:33;;;;;;;40.30;23.33;;;-0.10;99.90;;;;;;5017988;28;20168;-72
2024/01/19 06:06:59;;;;;;;47.37;23.20;;;-0.20;99.90;;;;;;5034479;28;20235;-72
2024/01/19 06:09:25;;;;;;;48.10;22.53;;;-0.20;99.90;;;;;;5034212;28;20271;-72
2024/01/19 06:11:51;;;;;;;47.93;23.03;;;-0.10;99.90;;;;;;5034220;28;20281;-72
2024/01/19 06:14:16;;;;;;;45.70;22.23;;;-0.30;99.90;;;;;;5034099;28;20710;-72
2024/01/19 06:16:42;;;;;;;44.17;21.87;;;-0.30;99.90;;;;;;5034433;28;20172;-71
2024/01/19 06:19:07;;;;;;;40.77;20.30;;;-0.50;99.90;;;;;;5033450;28;20210;-71
2024/01/19 06:21:33;;;;;;;43.97;21.50;;;-0.80;99.90;;;;;;5034114;28;20267;-71
2024/01/19 06:23:59;;;;;;;43.00;20.97;;;-0.90;99.90;;;;;;5034205;28;20164;-71
2024/01/19 06:26:25;;;;;;;41.33;21.90;;;-1.10;99.90;;;;;;5034215;28;20241;-71
2024/01/19 06:28:50;;;;;;;43.70;20.90;;;-1.40;99.90;;;;;;5033832;28;20234;-71
2024/01/19 06:31:16;;;;;;;35.27;20.07;;;-1.40;99.90;;;;;;5033870;28;20282;-71
2024/01/19 06:33:41;;;;;;;39.80;20.17;;;-1.60;99.90;;;;;;5030006;28;20233;-72
2024/01/19 06:36:08;;;;;;;42.17;22.23;;;-1.70;99.90;;;;;;5013273;28;20176;-72
2024/01/19 06:38:34;;;;;;;45.37;21.10;;;-1.90;99.90;;;;;;5013803;28;20188;-72
2024/01/19 06:41:00;;;;;;;39.40;20.23;;;-2.10;99.90;;;;;;5014043;28;20175;-72
2024/01/19 06:43:25;;;;;;;38.70;21.23;;;-2.20;99.90;;;;;;5013810;28;20176;-72
2024/01/19 06:45:51;;;;;;;40.20;22.43;;;-2.30;99.90;;;;;;5014876;28;20583;-71
2024/01/19 06:48:16;;;;;;;47.57;23.40;;;-2.40;99.90;;;;;;5013714;28;20299;-71
2024/01/19 06:50:42;;;;;;;38.40;21.20;;;-2.40;99.90;;;;;;5013587;28;20187;-71
2024/01/19 06:53:08;;;;;;;44.97;21.83;;;-2.50;99.90;;;;;;5013868;28;20179;-70
2024/01/19 06:55:33;;;;;;;41.60;23.13;;;-2.50;99.90;;;;;;5013980;28;20176;-71
2024/01/19 06:57:59;;;;;;;43.47;23.60;;;-2.40;99.90;;;;;;5029490;28;20690;-73
2024/01/19 07:00:24;;;;;;;44.60;22.77;;;-2.60;99.90;;;;;;5031304;28;20175;-71
2024/01/19 07:02:50;;;;;;;41.20;22.27;;;-2.70;99.90;;;;;;5033499;28;20643;-70
2024/01/19 07:05:16;;;;;;;43.53;21.60;;;-2.60;99.90;;;;;;5033003;28;20172;-74
2024/01/19 07:07:41;;;;;;;43.93;22.43;;;-2.70;99.90;;;;;;5033434;28;20266;-73
2024/01/19 07:10:07;;;;;;;41.63;22.03;;;-2.90;99.90;;;;;;5033033;28;20176;-72
2024/01/19 07:12:33;;;;;;;42.83;23.03;;;-2.90;99.90;;;;;;5032855;28;20718;-71
2024/01/19 07:14:58;;;;;;;48.70;23.67;;;-3.00;99.90;;;;;;5015984;28;20616;-71
2024/01/19 07:17:24;;;;;;;41.27;21.33;;;-3.20;99.90;;;;;;5013040;28;20666;-71
2024/01/19 07:19:50;;;;;;;45.93;22.10;;;-3.10;99.90;;;;;;5011590;28;20168;-71
2024/01/19 07:22:16;;;;;;;31.07;19.90;;;-3.30;99.90;;;;;;5018747;28;20673;-71
2024/01/19 07:24:41;;;;;;;52.53;23.13;;;-3.30;99.90;;;;;;5025590;28;20180;-71
2024/01/19 07:27:07;;;;;;;43.60;21.27;;;-3.30;99.90;;;;;;5011693;28;20288;-73
2024/01/19 07:29:33;;;;;;;42.93;21.90;;;-3.40;99.90;;;;;;5011039;28;20224;-71
2024/01/19 07:31:59;;;;;;;35.70;20.53;;;-3.30;99.90;;;;;;5012842;28;20199;-72
2024/01/19 07:34:25;;;;;;;43.17;22.40;;;-3.30;99.90;;;;;;5012736;28;20165;-71
2024/01/19 07:36:51;;;;;;;41.47;22.67;;;-3.30;99.90;;;;;;5013095;28;20167;-71
2024/01/19 07:39:23;;;;;;;45.53;23.00;;;-3.20;99.90;;;;;;5013038;28;20220;-71
2024/01/19 07:41:50;;;;;;;45.73;22.77;;;-3.30;99.90;;;;;;5012652;28;20243;-71
2024/01/19 07:44:16;;;;;;;52.77;25.50;;;-3.30;99.90;;;;;;5012757;28;20303;-71
2024/01/19 07:46:41;;;;;;;50.17;26.47;;;-3.30;99.90;;;;;;5012957;28;20719;-71
2024/01/19 07:49:07;;;;;;;49.63;26.80;;;-3.20;99.90;;;;;;5023345;28;20565;-71
2024/01/19 07:51:32;;;;;;;47.90;24.60;;;-3.10;99.90;;;;;;5023002;28;20200;-72
2024/01/19 07:53:58;;;;;;;51.47;24.53;;;-3.10;99.90;;;;;;5013529;28;20504;-71
2024/01/19 07:56:24;;;;;;;57.07;26.23;;;-3.10;99.90;;;;;;5024808;28;20174;-72
2024/01/19 07:58:49;;;;;;;50.37;23.43;;;-3.10;99.90;;;;;;5024603;28;20204;-71
2024/01/19 08:01:15;;;;;;;48.90;24.33;;;-3.00;99.90;;;;;;5028117;28;20187;-72
2024/01/19 08:03:42;;;;;;;48.57;25.30;;;-3.00;99.90;;;;;;5022569;28;20175;-71
2024/01/19 08:06:08;;;;;;;44.67;24.20;;;-2.80;99.90;;;;;;5031998;28;20172;-71
2024/01/19 08:08:33;;;;;;;57.97;26.73;;;-2.80;99.90;;;;;;5014738;28;20215;-71
2024/01/19 08:10:59;;;;;;;50.43;22.57;;;-2.70;99.90;;;;;;5013187;28;20594;-71
2024/01/19 08:13:24;;;;;;;53.20;25.57;;;-2.60;99.90;;;;;;5012763;28;20191;-72
2024/01/19 08:15:50;;;;;;;49.40;25.67;;;-2.40;99.90;;;;;;5012422;28;20172;-71
2024/01/19 08:18:15;;;;;;;55.17;26.87;;;-2.30;99.90;;;;;;5011947;28;20208;-72
2024/01/19 08:20:41;;;;;;;58.43;27.43;;;-1.90;99.90;;;;;;5028556;28;20601;-71
2024/01/19 08:23:07;;;;;;;59.33;29.17;;;-1.50;99.90;;;;;;5031868;28;20218;-72
2024/01/19 08:25:32;;;;;;;59.17;28.77;;;-1.10;99.90;;;;;;5031503;28;20207;-72
2024/01/19 08:27:58;;;;;;;59.67;30.80;;;-0.80;99.90;;;;;;5013904;28;20208;-71
2024/01/19 08:30:23;;;;;;;61.30;29.60;;;-0.40;99.90;;;;;;5011822;28;20647;-70
2024/01/19 08:32:49;;;;;;;57.17;28.97;;;0.10;99.90;;;;;;5011760;28;20290;-72
2024/01/19 08:35:15;;;;;;;52.40;27.23;;;0.30;99.90;;;;;;5020727;28;20175;-72
2024/01/19 08:37:41;;;;;;;48.30;26.67;;;0.50;99.90;;;;;;5013776;28;20196;-71
2024/01/19 08:40:07;;;;;;;49.40;28.57;;;0.50;99.90;;;;;;5018567;28;20183;-71
2024/01/19 08:42:34;;;;;;;42.83;25.73;;;0.40;99.90;;;;;;5031361;28;20210;-71
2024/01/19 08:44:59;;;;;;;44.53;26.70;;;0.40;99.90;;;;;;5026374;28;20662;-71
2024/01/19 08:47:26;;;;;;;46.63;26.30;;;0.20;99.90;;;;;;5021008;28;20188;-71
2024/01/19 08:49:51;;;;;;;46.00;25.50;;;-0.20;99.90;;;;;;5023029;28;20191;-71
2024/01/19 08:52:17;;;;;;;46.77;27.60;;;-0.30;99.90;;;;;;5011227;28;20199;-71
2024/01/19 08:54:43;;;;;;;52.87;26.33;;;-0.40;99.90;;;;;;5019164;28;20171;-71
2024/01/19 08:57:08;;;;;;;52.93;28.73;;;-0.30;99.90;;;;;;5030390;28;20182;-71
2024/01/19 08:59:34;;;;;;;62.33;34.27;;;0.00;99.90;;;;;;5016697;28;20221;-71
2024/01/19 09:02:00;;;;;;;69.13;34.97;;;0.50;99.90;;;;;;5022142;28;20187;-71
2024/01/19 09:04:27;;;;;;;56.13;31.00;;;0.80;99.90;;;;;;5014918;28;20211;-72
2024/01/19 09:06:55;;;;;;;48.53;29.13;;;1.20;99.90;;;;;;5026660;28;20335;-73
2024/01/19 09:09:20;;;;;;;51.17;29.33;;;1.50;99.90;;;;;;5012103;28;20570;-73
2024/01/19 09:11:46;;;;;;;47.60;26.57;;;1.70;99.90;;;;;;5012881;28;20683;-73
2024/01/19 09:14:13;;;;;;;43.30;25.30;;;1.80;99.90;;;;;;5011153;28;20251;-73
2024/01/19 09:16:44;;;;;;;47.80;25.20;;;2.10;99.90;;;;;;5011156;28;20168;-71
2024/01/19 09:19:12;;;;;;;47.83;27.50;;;2.30;99.90;;;;;;5028303;28;20195;-72
2024/01/19 09:21:39;;;;;;;41.17;23.63;;;2.60;99.90;;;;;;5031273;28;20210;-72
2024/01/19 09:24:06;;;;;;;42.17;24.77;;;3.00;99.90;;;;;;5031017;28;20282;-73
2024/01/19 09:26:32;;;;;;;41.00;24.27;;;3.10;99.90;;;;;;5031497;28;20175;-72
2024/01/19 09:28:57;;;;;;;37.17;22.43;;;3.20;99.90;;;;;;5030206;28;20198;-73
2024/01/19 09:31:24;;;;;;;38.53;21.93;;;3.40;99.90;;;;;;5030429;28;20233;-72
2024/01/19 09:33:50;;;;;;;38.90;20.87;;;3.40;99.90;;;;;;5030915;28;20172;-72
2024/01/19 09:36:16;;;;;;;36.33;20.20;;;3.60;99.90;;;;;;5030245;28;20180;-72
2024/01/19 09:38:42;;;;;;;30.10;18.87;;;3.30;99.90;;;;;;5030383;28;20689;-72
2024/01/19 09:41:32;;;;;;;26.90;18.40;;;3.20;99.90;;;;;;5030940;28;20167;-72
2024/01/19 09:44:00;;;;;;;27.07;17.43;;;3.10;99.90;;;;;;5027397;28;20711;-72
2024/01/19 09:46:28;;;;;;;26.23;17.90;;;2.80;99.90;;;;;;5010922;28;20235;-72
2024/01/19 09:49:30;;;;;;;31.43;18.20;;;2.60;1.00;;;;;;5010694;28;20566;-72
2024/01/19 09:52:01;;;;;;;33.60;20.23;;;2.40;1.00;;;;;;5014741;28;20678;-72
2024/01/19 09:54:33;;;;;;;31.63;19.27;;;1.80;60.80;;;;;;5030730;28;20164;-72
2024/01/19 09:57:03;;;;;;;35.90;21.07;;;1.50;1.00;;;;;;5028612;28;20175;-72
2024/01/19 09:59:33;;;;;;;31.17;18.03;;;1.60;1.00;;;;;;5010409;28;20196;-72
2024/01/19 10:02:00;;;;;;;28.87;18.57;;;1.60;99.90;;;;;;5010755;28;20173;-72
2024/01/19 10:04:27;;;;;;;32.50;18.73;;;1.60;99.90;;;;;;5010620;28;20716;-72
2024/01/19 10:06:54;;;;;;;30.33;18.83;;;1.60;99.90;;;;;;5010779;28;20179;-72
2024/01/19 10:09:20;;;;;;;34.97;19.13;;;1.50;99.90;;;;;;5010457;28;20270;-72
2024/01/19 10:11:49;;;;;;;39.17;22.17;;;1.70;99.90;;;;;;5014872;28;20238;-72
2024/01/19 10:14:15;;;;;;;39.47;23.87;;;1.30;99.90;;;;;;5034019;28;20178;-72
2024/01/19 10:16:42;;;;;;;36.33;21.77;;;1.20;99.90;;;;;;5033851;28;20171;-72
2024/01/19 10:19:09;;;;;;;39.13;21.10;;;1.60;99.90;;;;;;5032314;28;20198;-72
2024/01/19 10:21:35;;;;;;;40.27;21.93;;;1.60;99.90;;;;;;5033713;28;20183;-72
2024/01/19 10:24:11;;;;;;;36.93;20.97;;;1.40;99.90;;;;;;5033851;28;20188;-72
2024/01/19 10:26:37;;;;;;;33.80;20.57;;;1.70;99.90;;;;;;5030258;28;20266;-71
2024/01/19 10:29:14;;;;;;;36.97;21.50;;;1.50;99.90;;;;;;5013924;28;20801;-73
2024/01/19 10:31:42;;;;;;;33.37;21.40;;;1.70;1.00;;;;;;5013940;28;20211;-71
2024/01/19 10:34:28;;;;;;;33.20;20.07;;;2.00;99.90;;;;;;5015590;28;20680;-72
2024/01/19 10:36:54;;;;;;;38.93;22.90;;;2.30;1.00;;;;;;5033645;28;20191;-74
2024/01/19 10:39:30;;;;;;;40.03;22.60;;;2.30;99.90;;;;;;5033016;28;20302;-72
2024/01/19 10:42:06;;;;;;;44.10;22.53;;;2.60;99.90;;;;;;5033483;28;20225;-72
2024/01/19 10:44:33;;;;;;;32.77;21.47;;;2.70;1.00;;;;;;5033322;28;20202;-72
2024/01/19 10:46:59;;;;;;;43.97;22.50;;;2.70;99.90;;;;;;5033517;28;20175;-72
2024/01/19 10:49:25;;;;;;;37.20;21.33;;;2.60;99.90;;;;;;5032193;28;20752;-72
2024/01/19 10:51:51;;;;;;;37.80;21.33;;;2.90;1.00;;;;;;5033267;28;20203;-72
2024/01/19 10:54:25;;;;;;;31.47;20.13;;;2.80;1.00;;;;;;5032112;28;20178;-72
2024/01/19 10:57:08;;;;;;;34.73;21.47;;;3.00;30.30;;;;;;5013868;28;20171;-73
2024/01/19 10:59:37;;;;;;;33.57;19.33;;;3.30;1.00;;;;;;5013156;28;20188;-73
2024/01/19 11:02:03;;;;;;;32.43;20.00;;;3.60;1.00;;;;;;5013414;28;20214;-72
2024/01/19 11:04:29;;;;;;;31.03;19.50;;;4.20;99.90;;;;;;5013129;28;20180;-73
2024/01/19 11:06:56;;;;;;;32.60;19.23;;;4.40;7.60;;;;;;5013208;28;20255;-74
2024/01/19 11:09:22;;;;;;;29.10;17.50;;;4.70;62.50;;;;;;5015025;28;20739;-72
2024/01/19 11:11:54;;;;;;;31.73;18.27;;;4.70;99.90;;;;;;5032888;28;20203;-74
2024/01/19 11:14:23;;;;;;;29.63;18.37;;;4.50;99.90;;;;;;5032989;28;20168;-73
2024/01/19 11:16:51;;;;;;;27.17;18.80;;;4.30;99.90;;;;;;5032385;28;20636;-72
2024/01/19 11:19:17;;;;;;;26.97;18.60;;;4.30;99.90;;;;;;5031408;28;20195;-73
2024/01/19 11:21:44;;;;;;;29.80;18.73;;;4.20;99.90;;;;;;5032351;28;20195;-72
2024/01/19 11:24:11;;;;;;;32.57;18.03;;;4.10;99.90;;;;;;5032825;28;20237;-75
2024/01/19 11:27:14;;;;;;;30.53;18.47;;;4.00;99.90;;;;;;5030484;28;20175;-74
2024/01/19 11:29:42;;;;;;;34.90;18.47;;;4.00;99.90;;;;;;5012241;28;20688;-72
2024/01/19 11:32:09;;;;;;;27.83;17.43;;;3.90;99.90;;;;;;5012776;28;20294;-73
2024/01/19 11:34:39;;;;;;;27.87;19.57;;;3.80;99.90;;;;;;5012843;28;20239;-72
2024/01/19 11:37:04;;;;;;;38.03;19.63;;;4.10;99.90;;;;;;5012722;28;20602;-72
2024/01/19 11:39:45;;;;;;;34.07;20.90;;;4.50;1.00;;;;;;5011267;28;20196;-73
2024/01/19 11:42:47;;;;;;;26.57;16.70;;;5.30;1.00;;;;;;5013747;28;20176;-74
2024/01/19 11:45:27;;;;;;;31.40;19.00;;;5.50;3.60;;;;;;5012634;28;20175;-73
2024/01/19 11:47:56;;;;;;;30.67;17.80;;;5.40;1.00;;;;;;5012569;28;20250;-72
2024/01/19 11:50:45;;;;;;;27.43;17.10;;;5.50;1.00;;;;;;5012402;28;20192;-72
2024/01/19 11:53:11;;;;;;;25.77;16.77;;;5.90;1.00;;;;;;5014242;28;20584;-73
2024/01/19 11:55:39;;;;;;;31.87;16.17;;;6.30;1.00;;;;;;5032537;28;20180;-71
2024/01/19 11:58:27;;;;;;;24.70;16.40;;;6.70;1.00;;;;;;5032304;28;20195;-72
2024/01/19 12:00:57;;;;;;;23.50;14.87;;;7.20;1.00;;;;;;5032083;28;20183;-71
2024/01/19 12:03:24;;;;;;;27.47;16.40;;;7.50;1.00;;;;;;5031948;28;20544;-73
2024/01/19 12:05:51;;;;;;;25.63;16.00;;;7.70;1.00;;;;;;5031921;28;20179;-74
2024/01/19 12:08:16;;;;;;;29.63;17.00;;;7.90;1.00;;;;;;5027346;28;20207;-73
2024/01/19 12:10:43;;;;;;;24.97;16.60;;;8.00;1.00;;;;;;5012021;28;20183;-73
2024/01/19 12:13:09;;;;;;;21.10;16.33;;;7.90;1.00;;;;;;5012122;28;20204;-73
2024/01/19 12:15:35;;;;;;;26.17;16.37;;;8.00;1.00;;;;;;5011896;28;20179;-73
2024/01/19 12:18:04;;;;;;;23.10;15.63;;;8.00;1.00;;;;;;5011938;28;20664;-72
2024/01/19 12:20:30;;;;;;;24.30;14.30;;;7.80;1.00;;;;;;5011796;28;20255;-72
2024/01/19 12:22:56;;;;;;;25.43;15.63;;;7.60;1.00;;;;;;5028747;28;20196;-73
2024/01/19 12:25:26;;;;;;;25.73;15.30;;;7.20;1.00;;;;;;5031771;28;20183;-72
2024/01/19 12:28:06;;;;;;;31.67;16.80;;;6.90;1.00;;;;;;5030205;28;20203;-72
2024/01/19 12:30:34;;;;;;;26.30;17.60;;;6.70;1.00;;;;;;5031416;28;20720;-73